createdAt,value
2023-05-07T07:38:38.206Z,6.50
2023-05-07T07:41:09.556Z,6.10
2023-05-07T07:43:37.999Z,5.90
2023-05-07T07:46:06.670Z,5.50
2023-05-07T07:48:35.103Z,5.90
2023-05-07T07:51:03.568Z,5.20
2023-05-07T07:53:32.333Z,5.90
2023-05-07T07:56:02.371Z,5.60
2023-05-07T07:58:36.829Z,5.70
2023-05-07T08:01:05.500Z,5.60
2023-05-07T08:03:34.130Z,5.60
2023-05-07T08:06:03.641Z,5.00
2023-05-07T08:08:32.413Z,5.10
2023-05-07T08:11:00.879Z,5.00
2023-05-07T08:13:32.530Z,5.00
2023-05-07T08:16:00.898Z,5.60
2023-05-07T08:18:30.165Z,4.60
2023-05-07T08:20:59.566Z,4.80
2023-05-07T08:23:28.165Z,5.10
2023-05-07T08:25:56.479Z,4.60
2023-05-07T08:28:26.224Z,5.10
2023-05-07T08:30:54.719Z,5.30
2023-05-07T08:33:23.310Z,5.50
2023-05-07T08:35:51.666Z,5.50
2023-05-07T08:38:20.274Z,5.10
2023-05-07T08:40:49.137Z,5.80
2023-05-07T08:43:21.455Z,5.60
2023-05-07T08:45:53.178Z,5.00
2023-05-07T08:48:28.881Z,5.80
2023-05-07T08:51:05.960Z,6.20
2023-05-07T08:53:34.729Z,5.10
2023-05-07T08:56:04.755Z,5.50
2023-05-07T08:58:33.551Z,5.30
2023-05-07T09:01:11.030Z,5.60
2023-05-07T09:03:40.609Z,5.30
2023-05-07T09:06:09.608Z,5.20
2023-05-07T09:08:41.059Z,5.30
2023-05-07T09:11:11.318Z,5.60
2023-05-07T09:13:44.072Z,5.70
2023-05-07T09:16:16.542Z,5.00
2023-05-07T09:18:48.761Z,4.50
2023-05-07T09:21:27.048Z,4.80
2023-05-07T09:23:57.364Z,4.70
2023-05-07T09:26:35.996Z,4.80
2023-05-07T09:29:05.339Z,5.30
2023-05-07T09:31:37.737Z,6.30
2023-05-07T09:34:06.920Z,5.50
2023-05-07T09:36:38.180Z,4.80
2023-05-07T09:39:09.060Z,5.50
2023-05-07T09:41:48.691Z,6.00
2023-05-07T09:44:26.968Z,6.00
2023-05-07T09:47:01.624Z,5.80
2023-05-07T09:49:40.402Z,5.60
2023-05-07T09:52:13.236Z,6.20
2023-05-07T09:54:48.338Z,5.70
2023-05-07T09:57:25.295Z,5.40
2023-05-07T09:59:59.697Z,5.40
2023-05-07T10:02:32.383Z,5.80
2023-05-07T10:05:03.050Z,6.10
2023-05-07T10:07:33.566Z,5.80
2023-05-07T10:10:09.765Z,7.10
2023-05-07T10:12:44.071Z,6.60
2023-05-07T10:15:18.126Z,8.00
2023-05-07T10:17:49.876Z,8.40
2023-05-07T10:20:21.939Z,7.00
2023-05-07T10:22:53.537Z,6.70
2023-05-07T10:28:13.457Z,6.50
2023-05-07T10:31:04.170Z,7.40
2023-05-07T10:33:40.777Z,7.30
2023-05-07T10:36:13.147Z,8.00
2023-05-07T10:38:42.223Z,7.40
2023-05-07T10:41:12.998Z,7.40
2023-05-07T10:43:46.082Z,6.30
2023-05-07T10:46:24.158Z,6.10
2023-05-07T10:49:04.737Z,6.90
2023-05-07T10:51:41.448Z,6.40
2023-05-07T10:54:24.943Z,6.80
2023-05-07T10:57:40.136Z,7.60
2023-05-07T11:00:37.928Z,7.20
2023-05-07T11:03:08.607Z,6.90
2023-05-07T11:05:45.390Z,7.20
2023-05-07T11:08:25.314Z,6.90
2023-05-07T11:11:06.985Z,6.60
2023-05-07T11:13:47.672Z,6.30
2023-05-07T11:16:44.878Z,7.20
2023-05-07T11:19:59.241Z,9.40
2023-05-07T11:22:49.493Z,7.80
2023-05-07T11:25:34.983Z,6.80
2023-05-07T11:28:23.340Z,8.30
2023-05-07T11:30:59.208Z,8.80
2023-05-07T11:33:28.306Z,10.60
2023-05-07T11:35:58.503Z,11.80
2023-05-07T11:38:36.833Z,6.90
2023-05-07T11:41:10.230Z,6.30
2023-05-07T11:43:41.763Z,6.60
2023-05-07T11:46:12.110Z,6.40
2023-05-07T11:48:43.802Z,6.60
2023-05-07T11:51:21.077Z,6.60
2023-05-07T11:53:50.425Z,6.70
2023-05-07T11:56:20.467Z,7.40
2023-05-07T11:58:54.318Z,7.30
2023-05-07T12:01:25.179Z,7.00
2023-05-07T12:03:56.610Z,7.40
2023-05-07T12:09:13.402Z,7.50
2023-05-07T12:11:49.536Z,7.40
2023-05-07T12:14:18.097Z,6.80
2023-05-07T12:16:47.002Z,6.80
2023-05-07T12:19:16.685Z,6.50
2023-05-07T12:21:45.222Z,6.20
2023-05-07T12:24:16.554Z,5.00
2023-05-07T12:26:52.480Z,5.40
2023-05-07T12:32:20.111Z,5.00
2023-05-07T12:34:53.276Z,6.20
2023-05-07T12:37:32.351Z,5.60
2023-05-07T12:40:13.587Z,5.50
2023-05-07T12:42:50.012Z,5.20
2023-05-07T12:45:21.561Z,5.60
2023-05-07T12:47:52.849Z,6.70
2023-05-07T12:50:24.214Z,6.30
2023-05-07T12:52:52.682Z,5.80
2023-05-07T12:55:22.431Z,5.60
2023-05-07T12:57:53.874Z,5.00
2023-05-07T13:00:38.761Z,5.90
2023-05-07T13:03:07.487Z,5.20
2023-05-07T13:05:38.909Z,5.30
2023-05-07T13:08:07.424Z,6.40
2023-05-07T13:10:40.684Z,7.30
2023-05-07T13:13:17.086Z,6.90
2023-05-07T13:15:45.451Z,6.00
2023-05-07T13:18:14.240Z,6.90
2023-05-07T13:20:42.654Z,7.40
2023-05-07T13:23:11.031Z,7.70
2023-05-07T13:25:39.653Z,7.70
2023-05-07T13:28:13.860Z,9.50
2023-05-07T13:30:42.712Z,9.90
2023-05-07T13:33:11.179Z,10.90
2023-05-07T13:35:40.884Z,9.20
2023-05-07T13:38:10.620Z,9.20
2023-05-07T13:40:39.718Z,8.80
2023-05-07T13:43:09.157Z,8.00
2023-05-07T13:45:37.403Z,7.70
2023-05-07T13:48:06.019Z,7.60
2023-05-07T13:50:34.428Z,7.50
2023-05-07T13:53:02.867Z,6.90
2023-05-07T13:55:31.144Z,7.00
2023-05-07T13:58:01.729Z,6.80
2023-05-07T14:00:30.866Z,6.70
2023-05-07T14:02:59.382Z,6.20
2023-05-07T14:05:29.304Z,6.10
2023-05-07T14:08:00.999Z,5.60
2023-05-07T14:10:33.093Z,6.00
2023-05-07T14:13:07.765Z,6.80
2023-05-07T14:15:36.208Z,5.80
2023-05-07T14:18:04.864Z,5.70
2023-05-07T14:20:33.384Z,5.40
2023-05-07T14:23:01.818Z,4.90
2023-05-07T14:25:30.449Z,5.70
2023-05-07T14:28:01.927Z,5.20
2023-05-07T14:30:33.535Z,4.30
2023-05-07T14:33:07.142Z,5.40
2023-05-07T14:35:36.648Z,5.40
2023-05-07T14:38:08.088Z,5.10
2023-05-07T14:40:36.547Z,5.30
2023-05-07T14:43:04.934Z,5.10
2023-05-07T14:45:33.355Z,5.60
2023-05-07T14:48:02.075Z,7.60
2023-05-07T14:50:30.926Z,6.80
2023-05-07T14:52:59.739Z,12.70
2023-05-07T14:55:28.213Z,7.10
2023-05-07T14:57:57.070Z,6.10
2023-05-07T15:00:25.564Z,5.60
2023-05-07T15:03:04.537Z,6.70
2023-05-07T15:05:36.928Z,9.20
2023-05-07T15:08:08.400Z,11.60
2023-05-07T15:10:42.317Z,5.30
2023-05-07T15:13:15.965Z,5.60
2023-05-07T15:15:46.374Z,5.20
2023-05-07T15:18:15.866Z,5.50
2023-05-07T15:20:44.590Z,6.70
2023-05-07T15:23:14.413Z,7.00
2023-05-07T15:25:45.180Z,5.80
2023-05-07T15:28:13.502Z,8.40
2023-05-07T15:30:41.779Z,8.10
2023-05-07T15:33:10.137Z,8.20
2023-05-07T15:35:38.711Z,8.00
2023-05-07T15:38:07.030Z,6.80
2023-05-07T15:40:36.558Z,4.90
2023-05-07T15:43:04.827Z,5.60
2023-05-07T15:45:33.206Z,5.50
2023-05-07T15:48:02.241Z,5.80
2023-05-07T15:50:30.595Z,5.80
2023-05-07T15:52:59.098Z,8.10
2023-05-07T15:55:27.442Z,8.30
2023-05-07T15:57:55.721Z,5.40
2023-05-07T16:00:28.560Z,5.50
2023-05-07T16:02:56.971Z,6.70
2023-05-07T16:05:25.437Z,4.80
2023-05-07T16:07:54.826Z,4.40
2023-05-07T16:10:23.186Z,4.80
2023-05-07T16:12:51.435Z,5.10
2023-05-07T16:15:19.757Z,6.00
2023-05-07T16:17:52.222Z,6.70
2023-05-07T16:20:22.092Z,6.30
2023-05-07T16:22:50.422Z,5.50
2023-05-07T16:25:18.707Z,7.00
2023-05-07T16:27:46.973Z,8.00
2023-05-07T16:30:15.373Z,7.30
2023-05-07T16:32:43.694Z,10.80
2023-05-07T16:35:12.572Z,11.10
2023-05-07T16:37:42.018Z,11.20
2023-05-07T16:40:10.690Z,10.70
2023-05-07T16:42:39.459Z,8.50
2023-05-07T16:45:09.016Z,6.70
2023-05-07T16:47:37.351Z,6.70
2023-05-07T16:50:06.427Z,7.10
2023-05-07T16:52:35.540Z,7.10
2023-05-07T16:55:04.087Z,5.70
2023-05-07T16:57:32.826Z,7.10
2023-05-07T17:00:01.233Z,6.90
2023-05-07T17:02:29.680Z,7.10
2023-05-07T17:04:58.113Z,6.80
2023-05-07T17:07:27.660Z,6.80
2023-05-07T17:09:56.018Z,7.30
2023-05-07T17:12:24.298Z,7.00
2023-05-07T17:14:52.637Z,7.40
2023-05-07T17:17:20.986Z,7.20
2023-05-07T17:19:49.252Z,7.60
2023-05-07T17:22:17.750Z,6.90
2023-05-07T17:24:46.034Z,6.80
2023-05-07T17:27:14.244Z,7.00
2023-05-07T17:29:42.607Z,7.90
2023-05-07T17:32:11.049Z,8.10
2023-05-07T17:34:39.540Z,8.80
2023-05-07T17:37:08.043Z,9.00
2023-05-07T17:39:36.281Z,10.20
2023-05-07T17:42:04.797Z,10.00
2023-05-07T17:44:33.988Z,10.00
2023-05-07T17:47:03.336Z,10.90
2023-05-07T17:49:31.679Z,9.80
2023-05-07T17:52:00.031Z,9.40
2023-05-07T17:54:28.290Z,9.20
2023-05-07T17:56:56.770Z,8.90
2023-05-07T17:59:25.149Z,9.60
2023-05-07T18:01:53.550Z,9.80
2023-05-07T18:04:21.969Z,9.60
2023-05-07T18:06:50.324Z,8.80
2023-05-07T18:09:18.687Z,9.10
2023-05-07T18:11:46.896Z,9.50
2023-05-07T18:14:15.262Z,11.30
2023-05-07T18:16:43.575Z,10.20
2023-05-07T18:19:12.347Z,9.90
2023-05-07T18:21:40.946Z,12.80
2023-05-07T18:24:09.969Z,12.10
2023-05-07T18:26:38.371Z,10.80
2023-05-07T18:29:06.697Z,11.00
2023-05-07T18:31:37.583Z,13.00
2023-05-07T18:34:06.692Z,10.90
2023-05-07T18:36:35.347Z,9.90
2023-05-07T18:39:04.275Z,10.20
2023-05-07T18:41:32.947Z,9.70
2023-05-07T18:44:01.329Z,10.70
2023-05-07T18:46:29.787Z,9.50
2023-05-07T18:48:58.178Z,9.60
2023-05-07T18:51:27.508Z,8.30
2023-05-07T18:53:55.820Z,8.10
2023-05-07T18:56:24.133Z,8.20
2023-05-07T18:58:52.493Z,8.40
2023-05-07T19:01:20.775Z,8.60
2023-05-07T19:03:49.079Z,9.10
2023-05-07T19:06:17.471Z,11.00
2023-05-07T19:08:45.793Z,10.10
2023-05-07T19:11:14.938Z,11.00
2023-05-07T19:13:43.261Z,9.70
2023-05-07T19:16:13.652Z,10.90
2023-05-07T19:18:42.264Z,9.40
2023-05-07T19:21:10.661Z,10.50
2023-05-07T19:23:42.068Z,9.00
2023-05-07T19:26:11.534Z,12.10
2023-05-07T19:28:45.184Z,22.70
2023-05-07T19:31:22.366Z,13.30
2023-05-07T19:33:50.766Z,10.90
2023-05-07T19:36:19.084Z,16.30
2023-05-07T19:38:50.009Z,12.00
2023-05-07T19:41:18.334Z,11.10
2023-05-07T19:43:46.525Z,11.70
2023-05-07T19:46:16.983Z,10.80
2023-05-07T19:48:45.974Z,14.40
2023-05-07T19:51:14.155Z,10.00
2023-05-07T19:53:42.539Z,9.80
2023-05-07T19:56:11.744Z,10.10
2023-05-07T19:58:40.052Z,8.60
2023-05-07T20:01:08.498Z,7.20
2023-05-07T20:03:37.266Z,7.70
2023-05-07T20:06:05.858Z,8.40
2023-05-07T20:08:34.237Z,8.00
2023-05-07T20:11:02.553Z,8.40
2023-05-07T20:13:30.978Z,8.10
2023-05-07T20:16:01.397Z,8.60
2023-05-07T20:18:30.086Z,8.60
2023-05-07T20:20:58.620Z,7.20
2023-05-07T20:23:27.085Z,7.40
2023-05-07T20:25:55.524Z,7.70
2023-05-07T20:28:24.842Z,7.40
2023-05-07T20:30:53.087Z,6.80
2023-05-07T20:33:21.701Z,7.00
2023-05-07T20:35:49.921Z,7.40
2023-05-07T20:38:18.288Z,8.10
2023-05-07T20:40:47.731Z,7.10
2023-05-07T20:43:16.154Z,6.90
2023-05-07T20:45:44.449Z,7.60
2023-05-07T20:48:13.774Z,7.40
2023-05-07T20:50:42.172Z,7.00
2023-05-07T20:53:10.306Z,7.40
2023-05-07T20:55:38.690Z,7.60
2023-05-07T20:58:07.007Z,6.90
2023-05-07T21:00:36.003Z,7.00
2023-05-07T21:03:04.382Z,7.10
2023-05-07T21:05:33.004Z,7.10
2023-05-07T21:08:01.387Z,6.30
2023-05-07T21:10:29.672Z,7.30
2023-05-07T21:12:57.838Z,5.70
2023-05-07T21:15:26.122Z,6.10
2023-05-07T21:17:54.409Z,6.50
2023-05-07T21:20:22.665Z,6.80
2023-05-07T21:22:50.803Z,6.00
2023-05-07T21:25:19.237Z,5.80
2023-05-07T21:27:47.450Z,5.80
2023-05-07T21:30:16.600Z,5.90
2023-05-07T21:32:45.640Z,6.70
2023-05-07T21:35:15.633Z,5.70
2023-05-07T21:37:43.851Z,5.50
2023-05-07T21:40:12.689Z,6.50
2023-05-07T21:42:41.299Z,5.30
2023-05-07T21:45:10.385Z,5.50
2023-05-07T21:47:38.801Z,5.60
2023-05-07T21:50:07.600Z,5.90
2023-05-07T21:52:36.696Z,5.60
2023-05-07T21:55:05.412Z,5.10
2023-05-07T21:57:33.697Z,5.30
2023-05-07T22:00:03.424Z,5.70
2023-05-07T22:02:34.117Z,5.30
2023-05-07T22:05:03.050Z,5.90
2023-05-07T22:07:31.930Z,5.90
2023-05-07T22:10:01.027Z,5.00
2023-05-07T22:12:29.218Z,6.40
2023-05-07T22:14:57.373Z,5.70
2023-05-07T22:17:25.820Z,5.70
2023-05-07T22:19:54.011Z,5.90
2023-05-07T22:22:22.258Z,5.20
2023-05-07T22:24:50.530Z,5.60
2023-05-07T22:27:18.771Z,5.50
2023-05-07T22:29:46.995Z,6.60
2023-05-07T22:32:15.407Z,5.60
2023-05-07T22:34:43.803Z,4.80
2023-05-07T22:37:12.000Z,5.50
2023-05-07T22:39:42.089Z,5.30
2023-05-07T22:42:10.398Z,5.30
2023-05-07T22:44:38.686Z,4.90
2023-05-07T22:47:06.990Z,4.90
2023-05-07T22:49:36.011Z,5.80
2023-05-07T22:52:04.568Z,6.00
2023-05-07T22:54:32.913Z,6.40
2023-05-07T22:57:01.875Z,6.10
2023-05-07T22:59:30.174Z,7.00
2023-05-07T23:01:58.610Z,5.40
2023-05-07T23:04:26.839Z,5.70
2023-05-07T23:06:55.025Z,5.30
2023-05-07T23:09:23.651Z,5.50
2023-05-07T23:11:51.831Z,5.90
2023-05-07T23:14:21.214Z,5.60
2023-05-07T23:16:50.521Z,6.10
2023-05-07T23:19:18.894Z,5.60
2023-05-07T23:21:47.629Z,5.90
2023-05-07T23:24:15.972Z,5.90
2023-05-07T23:26:44.102Z,4.90
2023-05-07T23:29:12.382Z,6.30
2023-05-07T23:31:40.957Z,6.10
2023-05-07T23:34:09.241Z,5.60
2023-05-07T23:36:37.589Z,6.10
2023-05-07T23:39:05.909Z,5.70
2023-05-07T23:41:34.243Z,5.00
2023-05-07T23:44:02.498Z,5.60
2023-05-07T23:46:30.911Z,6.10
2023-05-07T23:48:59.177Z,6.10
2023-05-07T23:51:27.516Z,6.30
2023-05-07T23:53:55.860Z,6.80
2023-05-07T23:56:24.014Z,5.50
2023-05-07T23:58:52.182Z,6.00
